Allerton, Illinois
Current Conditions -  °F | °C
As of 11:53 PM on Friday 24 Oct 2014 (Local Time) from KCMI Reporting Station
Overcast Overcast  
Wind Chill: 58°   Ceiling: 3500
Heat Index: 58°   Visibility: 7mi
Dew Point: 54°   Wind: 8mph
Humidity: 87%   Direction: 190°S
Pressure: 29.99"   Gusts: NA
Location:  39.91°N, 87.94°W
Report Text: KCMI 250453Z AUTO 19007KT 7SM OVC035 14/12 A2999 RMK AO2 SLP152 T01440122 $
Loading
Personal Weather Stations






























Interactive Weather Map
Tropical Storm Tracking
New forecast layout! Learn more

10-Day Weather Forecast

Advertisements
Track Severe Weather on mobile